Portada
METAR-TAF:

METAR-TAF

Aeroports :

Bou Saâda, Algèria

latitud: 35-20N, longitud: 004-12E, altitud: 461 m

Observació

L'informe es va fer fa 12 hores i 4 minuts, a les 18:00 UTC
Vent 9 kt del Sud
Temperatura 27°C
Humitat 37%
Pressió 1019 hPa
Visibilitat 10 km o més
Escasses núvols a una alçada de 3000 ft

METAR: DAAD 131800Z 19009KT 9999 FEW030 27/11 Q1019

Hora: 07:04 (06:04 UTC)

Pronòstic

L'informe es va fer fa 13 hores i 4 minuts, a les 17:00 UTC
Pronòstic vàlid del 13 a les 18 UTC al 14 a les 03 UTC
Vent 8 kt del Sud/Sud-Est
Visibilitat 10 km o més
Escasses núvols a una alçada de 3000 ft

TAF: DAAD 131700Z 1318/1403 16008KT 9999 FEW030

Observacions i pronòstics meteorològics de més de 4000 aeroports (METAR i TAF).

Les estacions disponibles són els punts grocs i vermells al mapa.

Posi el ratolí al punt desitjat per veure el nom de l'estació.

Feu clic per veure les observacions i els pronòstics meteorològics.

Per canviar el mapa: feu clic els botons verds amb una creu de color negre per apropar; al botó verd amb un guió per allunyar la imatge; o en les fletxes verdes per a mapes adjacents.


METAR-TAF: